sensor_id;sensor_type;location;lat;lon;timestamp;temperature;humidity
34644;DHT22;26931;43.498;-1.506;2022-08-19T00:01:55;21.80;85.80
34644;DHT22;26931;43.498;-1.506;2022-08-19T00:04:23;21.80;85.70
34644;DHT22;26931;43.498;-1.506;2022-08-19T00:06:50;21.80;85.60
34644;DHT22;26931;43.498;-1.506;2022-08-19T00:09:17;21.80;85.50
34644;DHT22;26931;43.498;-1.506;2022-08-19T00:11:44;21.70;85.40
34644;DHT22;26931;43.498;-1.506;2022-08-19T00:14:10;21.70;85.30
34644;DHT22;26931;43.498;-1.506;2022-08-19T00:16:37;21.70;85.10
34644;DHT22;26931;43.498;-1.506;2022-08-19T00:19:04;21.70;84.90
34644;DHT22;26931;43.498;-1.506;2022-08-19T00:21:30;21.70;84.80
34644;DHT22;26931;43.498;-1.506;2022-08-19T00:23:56;21.70;84.70
34644;DHT22;26931;43.498;-1.506;2022-08-19T00:26:26;21.70;84.70
34644;DHT22;26931;43.498;-1.506;2022-08-19T00:28:52;21.90;84.70
34644;DHT22;26931;43.498;-1.506;2022-08-19T00:31:18;21.70;84.60
34644;DHT22;26931;43.498;-1.506;2022-08-19T00:33:44;21.60;84.40
34644;DHT22;26931;43.498;-1.506;2022-08-19T00:36:10;21.70;84.40
34644;DHT22;26931;43.498;-1.506;2022-08-19T00:38:36;21.80;84.40
34644;DHT22;26931;43.498;-1.506;2022-08-19T00:41:02;21.70;84.30
34644;DHT22;26931;43.498;-1.506;2022-08-19T00:43:28;21.70;84.40
34644;DHT22;26931;43.498;-1.506;2022-08-19T00:45:54;21.70;84.40
34644;DHT22;26931;43.498;-1.506;2022-08-19T00:48:20;21.70;84.50
34644;DHT22;26931;43.498;-1.506;2022-08-19T00:50:46;21.70;84.40
34644;DHT22;26931;43.498;-1.506;2022-08-19T00:53:13;21.70;84.40
34644;DHT22;26931;43.498;-1.506;2022-08-19T00:55:40;21.70;84.20
34644;DHT22;26931;43.498;-1.506;2022-08-19T00:58:08;21.70;84.10
34644;DHT22;26931;43.498;-1.506;2022-08-19T01:00:35;21.70;84.00
34644;DHT22;26931;43.498;-1.506;2022-08-19T01:03:09;21.70;83.90
34644;DHT22;26931;43.498;-1.506;2022-08-19T01:05:36;21.70;83.80
34644;DHT22;26931;43.498;-1.506;2022-08-19T01:08:03;21.60;83.70
34644;DHT22;26931;43.498;-1.506;2022-08-19T01:10:31;21.50;83.60
34644;DHT22;26931;43.498;-1.506;2022-08-19T01:12:58;21.70;83.80
34644;DHT22;26931;43.498;-1.506;2022-08-19T01:15:25;21.70;83.90
34644;DHT22;26931;43.498;-1.506;2022-08-19T01:17:52;21.60;83.70
34644;DHT22;26931;43.498;-1.506;2022-08-19T01:20:20;21.70;83.60
34644;DHT22;26931;43.498;-1.506;2022-08-19T01:22:47;21.70;83.50
34644;DHT22;26931;43.498;-1.506;2022-08-19T01:25:15;21.60;83.30
34644;DHT22;26931;43.498;-1.506;2022-08-19T01:27:45;21.60;83.20
34644;DHT22;26931;43.498;-1.506;2022-08-19T01:30:24;21.60;83.10
34644;DHT22;26931;43.498;-1.506;2022-08-19T01:32:50;21.60;83.10
34644;DHT22;26931;43.498;-1.506;2022-08-19T01:35:17;21.60;83.10
34644;DHT22;26931;43.498;-1.506;2022-08-19T01:37:50;21.50;82.90
34644;DHT22;26931;43.498;-1.506;2022-08-19T01:40:18;21.60;82.90
34644;DHT22;26931;43.498;-1.506;2022-08-19T01:42:46;21.80;82.90
34644;DHT22;26931;43.498;-1.506;2022-08-19T01:45:12;21.60;82.70
34644;DHT22;26931;43.498;-1.506;2022-08-19T01:47:38;21.60;82.50
34644;DHT22;26931;43.498;-1.506;2022-08-19T01:50:05;21.60;82.40
34644;DHT22;26931;43.498;-1.506;2022-08-19T01:52:30;21.60;82.30
34644;DHT22;26931;43.498;-1.506;2022-08-19T01:54:56;21.60;82.10
34644;DHT22;26931;43.498;-1.506;2022-08-19T01:57:22;21.60;82.00
34644;DHT22;26931;43.498;-1.506;2022-08-19T01:59:48;21.60;82.00
34644;DHT22;26931;43.498;-1.506;2022-08-19T02:02:17;21.60;81.90
34644;DHT22;26931;43.498;-1.506;2022-08-19T02:04:42;21.60;81.80
34644;DHT22;26931;43.498;-1.506;2022-08-19T02:07:08;21.50;81.70
34644;DHT22;26931;43.498;-1.506;2022-08-19T02:09:34;21.60;81.80
34644;DHT22;26931;43.498;-1.506;2022-08-19T02:12:00;21.50;81.80
34644;DHT22;26931;43.498;-1.506;2022-08-19T02:14:25;21.50;81.90
34644;DHT22;26931;43.498;-1.506;2022-08-19T02:16:51;21.60;82.00
34644;DHT22;26931;43.498;-1.506;2022-08-19T02:19:17;21.70;82.10
34644;DHT22;26931;43.498;-1.506;2022-08-19T02:21:43;21.60;82.00
34644;DHT22;26931;43.498;-1.506;2022-08-19T02:24:09;21.50;82.00
34644;DHT22;26931;43.498;-1.506;2022-08-19T02:26:35;21.60;82.10
34644;DHT22;26931;43.498;-1.506;2022-08-19T02:29:01;21.70;82.30
34644;DHT22;26931;43.498;-1.506;2022-08-19T02:31:27;21.60;82.10
34644;DHT22;26931;43.498;-1.506;2022-08-19T02:33:56;21.50;82.10
34644;DHT22;26931;43.498;-1.506;2022-08-19T02:36:23;21.50;82.10
34644;DHT22;26931;43.498;-1.506;2022-08-19T02:38:48;21.50;82.10
34644;DHT22;26931;43.498;-1.506;2022-08-19T02:41:16;21.50;82.00
34644;DHT22;26931;43.498;-1.506;2022-08-19T02:43:43;21.50;82.00
34644;DHT22;26931;43.498;-1.506;2022-08-19T02:46:16;21.50;81.90
34644;DHT22;26931;43.498;-1.506;2022-08-19T02:48:48;21.50;82.00
34644;DHT22;26931;43.498;-1.506;2022-08-19T02:51:24;21.50;82.00
34644;DHT22;26931;43.498;-1.506;2022-08-19T02:53:50;21.50;82.10
34644;DHT22;26931;43.498;-1.506;2022-08-19T02:56:16;21.70;82.30
34644;DHT22;26931;43.498;-1.506;2022-08-19T02:58:45;21.70;82.30
34644;DHT22;26931;43.498;-1.506;2022-08-19T03:01:18;21.50;82.20
34644;DHT22;26931;43.498;-1.506;2022-08-19T03:03:44;21.50;82.30
34644;DHT22;26931;43.498;-1.506;2022-08-19T03:06:11;21.50;82.20
34644;DHT22;26931;43.498;-1.506;2022-08-19T03:08:39;21.50;82.20
34644;DHT22;26931;43.498;-1.506;2022-08-19T03:11:05;21.50;82.30
34644;DHT22;26931;43.498;-1.506;2022-08-19T03:13:31;21.50;82.40
34644;DHT22;26931;43.498;-1.506;2022-08-19T03:15:56;21.50;82.40
34644;DHT22;26931;43.498;-1.506;2022-08-19T03:18:22;21.50;82.30
34644;DHT22;26931;43.498;-1.506;2022-08-19T03:20:49;21.50;82.40
34644;DHT22;26931;43.498;-1.506;2022-08-19T03:23:15;21.40;82.60
34644;DHT22;26931;43.498;-1.506;2022-08-19T03:25:42;21.30;82.90
34644;DHT22;26931;43.498;-1.506;2022-08-19T03:28:12;21.30;83.40
34644;DHT22;26931;43.498;-1.506;2022-08-19T03:30:38;21.30;83.70
34644;DHT22;26931;43.498;-1.506;2022-08-19T03:33:07;21.20;83.80
34644;DHT22;26931;43.498;-1.506;2022-08-19T03:35:33;21.20;84.10
34644;DHT22;26931;43.498;-1.506;2022-08-19T03:38:02;21.20;84.40
34644;DHT22;26931;43.498;-1.506;2022-08-19T03:40:28;21.10;84.70
34644;DHT22;26931;43.498;-1.506;2022-08-19T03:42:56;21.10;85.00
34644;DHT22;26931;43.498;-1.506;2022-08-19T03:45:22;21.10;85.10
34644;DHT22;26931;43.498;-1.506;2022-08-19T03:47:48;21.20;85.20
34644;DHT22;26931;43.498;-1.506;2022-08-19T03:50:13;21.10;85.30
34644;DHT22;26931;43.498;-1.506;2022-08-19T03:52:39;21.00;85.40
34644;DHT22;26931;43.498;-1.506;2022-08-19T03:55:05;21.10;85.70
34644;DHT22;26931;43.498;-1.506;2022-08-19T03:57:30;21.10;85.80
34644;DHT22;26931;43.498;-1.506;2022-08-19T03:59:57;21.00;85.70
34644;DHT22;26931;43.498;-1.506;2022-08-19T04:02:23;21.00;85.80
34644;DHT22;26931;43.498;-1.506;2022-08-19T04:04:48;20.90;85.70
34644;DHT22;26931;43.498;-1.506;2022-08-19T04:07:14;21.00;85.70
34644;DHT22;26931;43.498;-1.506;2022-08-19T04:09:41;21.00;85.80
34644;DHT22;26931;43.498;-1.506;2022-08-19T04:12:07;20.80;85.70
34644;DHT22;26931;43.498;-1.506;2022-08-19T04:14:33;21.00;86.00
34644;DHT22;26931;43.498;-1.506;2022-08-19T04:16:59;20.90;86.20
34644;DHT22;26931;43.498;-1.506;2022-08-19T04:19:26;20.90;86.30
34644;DHT22;26931;43.498;-1.506;2022-08-19T04:21:52;20.80;86.40
34644;DHT22;26931;43.498;-1.506;2022-08-19T04:24:19;20.70;86.60
34644;DHT22;26931;43.498;-1.506;2022-08-19T04:26:44;20.80;86.50
34644;DHT22;26931;43.498;-1.506;2022-08-19T04:29:12;20.80;86.70
34644;DHT22;26931;43.498;-1.506;2022-08-19T04:31:38;20.70;86.70
34644;DHT22;26931;43.498;-1.506;2022-08-19T04:34:05;20.70;86.80
34644;DHT22;26931;43.498;-1.506;2022-08-19T04:36:33;20.70;87.00
34644;DHT22;26931;43.498;-1.506;2022-08-19T04:39:03;20.70;87.10
34644;DHT22;26931;43.498;-1.506;2022-08-19T04:41:29;20.70;87.20
34644;DHT22;26931;43.498;-1.506;2022-08-19T04:44:13;20.70;87.30
34644;DHT22;26931;43.498;-1.506;2022-08-19T04:46:39;20.60;87.40
34644;DHT22;26931;43.498;-1.506;2022-08-19T04:49:06;20.70;87.50
34644;DHT22;26931;43.498;-1.506;2022-08-19T04:51:32;20.70;87.50
34644;DHT22;26931;43.498;-1.506;2022-08-19T04:53:57;20.70;87.50
34644;DHT22;26931;43.498;-1.506;2022-08-19T04:56:24;20.70;87.60
34644;DHT22;26931;43.498;-1.506;2022-08-19T04:58:51;20.70;87.50
34644;DHT22;26931;43.498;-1.506;2022-08-19T05:01:18;20.70;87.70
34644;DHT22;26931;43.498;-1.506;2022-08-19T05:03:44;20.60;87.60
34644;DHT22;26931;43.498;-1.506;2022-08-19T05:06:11;20.60;87.60
34644;DHT22;26931;43.498;-1.506;2022-08-19T05:08:38;20.60;87.80
34644;DHT22;26931;43.498;-1.506;2022-08-19T05:11:10;20.80;87.90
34644;DHT22;26931;43.498;-1.506;2022-08-19T05:13:36;20.80;87.90
34644;DHT22;26931;43.498;-1.506;2022-08-19T05:16:02;20.60;87.90
34644;DHT22;26931;43.498;-1.506;2022-08-19T05:18:28;20.60;87.90
34644;DHT22;26931;43.498;-1.506;2022-08-19T05:21:14;20.60;87.80
34644;DHT22;26931;43.498;-1.506;2022-08-19T05:23:58;20.60;87.90
34644;DHT22;26931;43.498;-1.506;2022-08-19T05:26:25;20.60;87.80
34644;DHT22;26931;43.498;-1.506;2022-08-19T05:28:53;20.60;87.90
34644;DHT22;26931;43.498;-1.506;2022-08-19T05:31:20;20.60;88.00
34644;DHT22;26931;43.498;-1.506;2022-08-19T05:33:46;20.70;88.10
34644;DHT22;26931;43.498;-1.506;2022-08-19T05:36:11;20.60;88.10
34644;DHT22;26931;43.498;-1.506;2022-08-19T05:38:37;20.50;88.00
34644;DHT22;26931;43.498;-1.506;2022-08-19T05:41:10;20.60;88.00
34644;DHT22;26931;43.498;-1.506;2022-08-19T05:43:36;20.60;88.20
34644;DHT22;26931;43.498;-1.506;2022-08-19T05:46:03;20.60;88.10
34644;DHT22;26931;43.498;-1.506;2022-08-19T05:48:30;20.60;88.10
34644;DHT22;26931;43.498;-1.506;2022-08-19T05:50:56;20.60;88.20
34644;DHT22;26931;43.498;-1.506;2022-08-19T05:53:23;20.60;88.20
34644;DHT22;26931;43.498;-1.506;2022-08-19T05:55:49;20.60;88.30
34644;DHT22;26931;43.498;-1.506;2022-08-19T05:58:14;20.60;88.20
34644;DHT22;26931;43.498;-1.506;2022-08-19T06:00:42;20.60;88.20
34644;DHT22;26931;43.498;-1.506;2022-08-19T06:03:07;20.70;88.20
34644;DHT22;26931;43.498;-1.506;2022-08-19T06:05:33;20.70;88.20
34644;DHT22;26931;43.498;-1.506;2022-08-19T06:07:59;20.60;88.00
34644;DHT22;26931;43.498;-1.506;2022-08-19T06:10:24;20.80;88.00
34644;DHT22;26931;43.498;-1.506;2022-08-19T06:12:51;20.80;88.00
34644;DHT22;26931;43.498;-1.506;2022-08-19T06:15:17;20.80;88.00
34644;DHT22;26931;43.498;-1.506;2022-08-19T06:17:43;20.80;88.00
34644;DHT22;26931;43.498;-1.506;2022-08-19T06:20:13;20.80;88.10
34644;DHT22;26931;43.498;-1.506;2022-08-19T06:22:44;21.00;88.40
34644;DHT22;26931;43.498;-1.506;2022-08-19T06:25:10;20.80;88.40
34644;DHT22;26931;43.498;-1.506;2022-08-19T06:27:36;20.80;88.50
34644;DHT22;26931;43.498;-1.506;2022-08-19T06:30:02;20.90;88.60
34644;DHT22;26931;43.498;-1.506;2022-08-19T06:32:28;20.90;88.60
34644;DHT22;26931;43.498;-1.506;2022-08-19T06:34:54;20.90;88.50
34644;DHT22;26931;43.498;-1.506;2022-08-19T06:37:20;21.00;88.60
34644;DHT22;26931;43.498;-1.506;2022-08-19T06:39:47;21.00;88.50
34644;DHT22;26931;43.498;-1.506;2022-08-19T06:42:13;21.00;88.40
34644;DHT22;26931;43.498;-1.506;2022-08-19T06:44:42;21.10;88.40
34644;DHT22;26931;43.498;-1.506;2022-08-19T06:47:09;21.10;88.40
34644;DHT22;26931;43.498;-1.506;2022-08-19T06:49:36;21.10;88.30
34644;DHT22;26931;43.498;-1.506;2022-08-19T06:52:02;21.10;88.20
34644;DHT22;26931;43.498;-1.506;2022-08-19T06:54:28;21.10;88.30
34644;DHT22;26931;43.498;-1.506;2022-08-19T06:56:55;21.10;88.30
34644;DHT22;26931;43.498;-1.506;2022-08-19T06:59:21;21.10;88.40
34644;DHT22;26931;43.498;-1.506;2022-08-19T07:01:51;21.10;88.50
34644;DHT22;26931;43.498;-1.506;2022-08-19T07:04:18;20.90;88.50
34644;DHT22;26931;43.498;-1.506;2022-08-19T07:06:45;21.10;88.60
34644;DHT22;26931;43.498;-1.506;2022-08-19T07:09:12;21.10;88.60
34644;DHT22;26931;43.498;-1.506;2022-08-19T07:11:38;21.10;88.60
34644;DHT22;26931;43.498;-1.506;2022-08-19T07:14:04;21.10;88.40
34644;DHT22;26931;43.498;-1.506;2022-08-19T07:16:31;21.00;88.10
34644;DHT22;26931;43.498;-1.506;2022-08-19T07:18:57;21.10;88.20
34644;DHT22;26931;43.498;-1.506;2022-08-19T07:21:24;21.10;88.00
34644;DHT22;26931;43.498;-1.506;2022-08-19T07:23:51;21.10;88.00
34644;DHT22;26931;43.498;-1.506;2022-08-19T07:26:18;21.10;87.90
34644;DHT22;26931;43.498;-1.506;2022-08-19T07:28:46;21.20;88.00
34644;DHT22;26931;43.498;-1.506;2022-08-19T07:31:13;21.20;87.90
34644;DHT22;26931;43.498;-1.506;2022-08-19T07:33:39;21.40;87.90
34644;DHT22;26931;43.498;-1.506;2022-08-19T07:36:06;21.30;87.80
34644;DHT22;26931;43.498;-1.506;2022-08-19T07:38:32;21.30;87.80
34644;DHT22;26931;43.498;-1.506;2022-08-19T07:40:58;21.30;87.70
34644;DHT22;26931;43.498;-1.506;2022-08-19T07:43:24;21.30;87.60
34644;DHT22;26931;43.498;-1.506;2022-08-19T07:45:52;21.40;87.50
34644;DHT22;26931;43.498;-1.506;2022-08-19T07:48:21;21.40;87.40
34644;DHT22;26931;43.498;-1.506;2022-08-19T07:50:50;21.50;87.40
34644;DHT22;26931;43.498;-1.506;2022-08-19T07:53:16;21.50;87.30
34644;DHT22;26931;43.498;-1.506;2022-08-19T07:55:42;21.50;87.20
34644;DHT22;26931;43.498;-1.506;2022-08-19T07:58:08;21.70;87.20
34644;DHT22;26931;43.498;-1.506;2022-08-19T08:00:34;21.60;87.00
34644;DHT22;26931;43.498;-1.506;2022-08-19T08:03:01;21.80;87.10
34644;DHT22;26931;43.498;-1.506;2022-08-19T08:05:26;21.70;86.80
34644;DHT22;26931;43.498;-1.506;2022-08-19T08:08:11;21.80;86.80
34644;DHT22;26931;43.498;-1.506;2022-08-19T08:10:55;21.80;86.60
34644;DHT22;26931;43.498;-1.506;2022-08-19T08:13:21;21.90;86.60
34644;DHT22;26931;43.498;-1.506;2022-08-19T08:15:47;22.00;86.40
34644;DHT22;26931;43.498;-1.506;2022-08-19T08:18:13;22.10;86.20
34644;DHT22;26931;43.498;-1.506;2022-08-19T08:20:39;22.20;85.90
34644;DHT22;26931;43.498;-1.506;2022-08-19T08:23:04;22.40;85.80
34644;DHT22;26931;43.498;-1.506;2022-08-19T08:25:50;22.50;85.60
34644;DHT22;26931;43.498;-1.506;2022-08-19T08:28:16;22.60;85.20
34644;DHT22;26931;43.498;-1.506;2022-08-19T08:30:42;22.70;85.00
34644;DHT22;26931;43.498;-1.506;2022-08-19T08:33:08;22.80;84.80
34644;DHT22;26931;43.498;-1.506;2022-08-19T08:35:34;22.80;84.30
34644;DHT22;26931;43.498;-1.506;2022-08-19T08:38:00;22.90;84.10
34644;DHT22;26931;43.498;-1.506;2022-08-19T08:40:32;22.90;84.00
34644;DHT22;26931;43.498;-1.506;2022-08-19T08:43:03;22.80;83.90
34644;DHT22;26931;43.498;-1.506;2022-08-19T08:45:32;22.80;83.70
34644;DHT22;26931;43.498;-1.506;2022-08-19T08:48:00;22.80;83.50
34644;DHT22;26931;43.498;-1.506;2022-08-19T08:50:29;22.90;83.40
34644;DHT22;26931;43.498;-1.506;2022-08-19T08:52:58;22.90;83.20
34644;DHT22;26931;43.498;-1.506;2022-08-19T08:55:26;22.70;82.90
34644;DHT22;26931;43.498;-1.506;2022-08-19T08:57:59;22.90;82.90
34644;DHT22;26931;43.498;-1.506;2022-08-19T09:00:27;22.90;82.80
34644;DHT22;26931;43.498;-1.506;2022-08-19T09:02:55;22.90;82.50
34644;DHT22;26931;43.498;-1.506;2022-08-19T09:05:21;22.90;82.30
34644;DHT22;26931;43.498;-1.506;2022-08-19T09:10:29;23.10;81.50
34644;DHT22;26931;43.498;-1.506;2022-08-19T09:13:03;23.10;81.20
34644;DHT22;26931;43.498;-1.506;2022-08-19T09:15:34;23.20;80.90
34644;DHT22;26931;43.498;-1.506;2022-08-19T09:18:02;23.30;80.70
34644;DHT22;26931;43.498;-1.506;2022-08-19T09:20:28;23.40;80.20
34644;DHT22;26931;43.498;-1.506;2022-08-19T09:22:56;23.50;79.70
34644;DHT22;26931;43.498;-1.506;2022-08-19T09:25:22;23.70;79.30
34644;DHT22;26931;43.498;-1.506;2022-08-19T09:27:49;23.80;79.10
34644;DHT22;26931;43.498;-1.506;2022-08-19T09:30:16;23.80;78.70
34644;DHT22;26931;43.498;-1.506;2022-08-19T09:32:43;23.90;78.50
34644;DHT22;26931;43.498;-1.506;2022-08-19T09:35:09;23.90;78.30
34644;DHT22;26931;43.498;-1.506;2022-08-19T09:37:35;24.00;78.00
34644;DHT22;26931;43.498;-1.506;2022-08-19T09:40:02;24.20;77.80
34644;DHT22;26931;43.498;-1.506;2022-08-19T09:42:28;24.20;77.50
34644;DHT22;26931;43.498;-1.506;2022-08-19T09:44:53;24.30;77.30
34644;DHT22;26931;43.498;-1.506;2022-08-19T09:47:19;24.40;77.10
34644;DHT22;26931;43.498;-1.506;2022-08-19T09:49:44;24.30;76.80
34644;DHT22;26931;43.498;-1.506;2022-08-19T09:52:10;24.50;76.80
34644;DHT22;26931;43.498;-1.506;2022-08-19T09:54:39;24.60;76.60
34644;DHT22;26931;43.498;-1.506;2022-08-19T09:57:05;24.30;76.40
34644;DHT22;26931;43.498;-1.506;2022-08-19T09:59:31;24.40;76.30
34644;DHT22;26931;43.498;-1.506;2022-08-19T10:01:57;24.40;76.10
34644;DHT22;26931;43.498;-1.506;2022-08-19T10:04:23;24.40;75.70
34644;DHT22;26931;43.498;-1.506;2022-08-19T10:07:09;24.50;75.50
34644;DHT22;26931;43.498;-1.506;2022-08-19T10:09:35;24.60;75.20
34644;DHT22;26931;43.498;-1.506;2022-08-19T10:12:01;24.60;75.00
34644;DHT22;26931;43.498;-1.506;2022-08-19T10:14:27;24.80;74.80
34644;DHT22;26931;43.498;-1.506;2022-08-19T10:16:53;24.90;74.30
34644;DHT22;26931;43.498;-1.506;2022-08-19T10:19:19;25.00;74.00
34644;DHT22;26931;43.498;-1.506;2022-08-19T10:21:46;25.10;74.10
34644;DHT22;26931;43.498;-1.506;2022-08-19T10:24:12;25.00;74.10
34644;DHT22;26931;43.498;-1.506;2022-08-19T10:26:39;25.00;73.70
34644;DHT22;26931;43.498;-1.506;2022-08-19T10:29:08;25.30;73.30
34644;DHT22;26931;43.498;-1.506;2022-08-19T10:31:36;25.40;72.70
34644;DHT22;26931;43.498;-1.506;2022-08-19T10:34:02;25.40;72.40
34644;DHT22;26931;43.498;-1.506;2022-08-19T10:36:30;25.60;72.00
34644;DHT22;26931;43.498;-1.506;2022-08-19T10:38:57;25.70;71.50
34644;DHT22;26931;43.498;-1.506;2022-08-19T10:41:25;25.80;71.20
34644;DHT22;26931;43.498;-1.506;2022-08-19T10:43:52;25.80;71.00
34644;DHT22;26931;43.498;-1.506;2022-08-19T10:46:20;25.80;70.80
34644;DHT22;26931;43.498;-1.506;2022-08-19T10:48:46;25.80;70.80
34644;DHT22;26931;43.498;-1.506;2022-08-19T10:51:11;25.70;70.60
34644;DHT22;26931;43.498;-1.506;2022-08-19T10:53:56;25.70;70.60
34644;DHT22;26931;43.498;-1.506;2022-08-19T10:56:22;25.60;70.60
34644;DHT22;26931;43.498;-1.506;2022-08-19T10:59:06;25.60;70.50
34644;DHT22;26931;43.498;-1.506;2022-08-19T11:01:33;25.50;70.30
34644;DHT22;26931;43.498;-1.506;2022-08-19T11:04:00;25.50;70.40
34644;DHT22;26931;43.498;-1.506;2022-08-19T11:06:26;25.50;70.30
34644;DHT22;26931;43.498;-1.506;2022-08-19T11:08:52;25.60;70.20
34644;DHT22;26931;43.498;-1.506;2022-08-19T11:11:19;25.60;69.80
34644;DHT22;26931;43.498;-1.506;2022-08-19T11:13:45;25.80;69.80
34644;DHT22;26931;43.498;-1.506;2022-08-19T11:16:14;25.80;69.60
34644;DHT22;26931;43.498;-1.506;2022-08-19T11:18:44;25.70;69.90
34644;DHT22;26931;43.498;-1.506;2022-08-19T11:21:15;25.50;70.00
34644;DHT22;26931;43.498;-1.506;2022-08-19T11:23:42;25.50;70.50
34644;DHT22;26931;43.498;-1.506;2022-08-19T11:26:08;25.30;70.30
34644;DHT22;26931;43.498;-1.506;2022-08-19T11:28:35;25.30;70.20
34644;DHT22;26931;43.498;-1.506;2022-08-19T11:31:01;25.40;69.80
34644;DHT22;26931;43.498;-1.506;2022-08-19T11:33:29;25.50;69.50
34644;DHT22;26931;43.498;-1.506;2022-08-19T11:35:57;25.70;69.60
34644;DHT22;26931;43.498;-1.506;2022-08-19T11:38:23;25.50;69.50
34644;DHT22;26931;43.498;-1.506;2022-08-19T11:40:58;25.40;69.60
34644;DHT22;26931;43.498;-1.506;2022-08-19T11:43:24;25.50;69.90
34644;DHT22;26931;43.498;-1.506;2022-08-19T11:45:52;25.30;69.80
34644;DHT22;26931;43.498;-1.506;2022-08-19T11:48:18;25.20;69.90
34644;DHT22;26931;43.498;-1.506;2022-08-19T11:50:50;25.20;70.10
34644;DHT22;26931;43.498;-1.506;2022-08-19T11:53:16;25.10;70.10
34644;DHT22;26931;43.498;-1.506;2022-08-19T11:55:43;25.00;70.20
34644;DHT22;26931;43.498;-1.506;2022-08-19T11:58:10;24.90;70.20
34644;DHT22;26931;43.498;-1.506;2022-08-19T12:00:36;24.90;70.40
34644;DHT22;26931;43.498;-1.506;2022-08-19T12:03:03;24.80;70.50
34644;DHT22;26931;43.498;-1.506;2022-08-19T12:05:28;24.80;70.50
34644;DHT22;26931;43.498;-1.506;2022-08-19T12:07:54;24.60;70.50
34644;DHT22;26931;43.498;-1.506;2022-08-19T12:10:20;24.60;70.60
34644;DHT22;26931;43.498;-1.506;2022-08-19T12:12:46;24.70;70.80
34644;DHT22;26931;43.498;-1.506;2022-08-19T12:15:12;24.70;70.80
34644;DHT22;26931;43.498;-1.506;2022-08-19T12:17:39;24.60;71.00
34644;DHT22;26931;43.498;-1.506;2022-08-19T12:20:06;24.60;71.10
34644;DHT22;26931;43.498;-1.506;2022-08-19T12:22:34;24.60;71.20
34644;DHT22;26931;43.498;-1.506;2022-08-19T12:25:00;24.50;71.30
34644;DHT22;26931;43.498;-1.506;2022-08-19T12:27:26;24.50;71.70
34644;DHT22;26931;43.498;-1.506;2022-08-19T12:29:51;24.50;71.90
34644;DHT22;26931;43.498;-1.506;2022-08-19T12:32:17;24.40;72.10
34644;DHT22;26931;43.498;-1.506;2022-08-19T12:34:43;24.40;72.30
34644;DHT22;26931;43.498;-1.506;2022-08-19T12:37:09;24.40;72.70
34644;DHT22;26931;43.498;-1.506;2022-08-19T12:39:37;24.30;72.90
34644;DHT22;26931;43.498;-1.506;2022-08-19T12:42:04;24.30;73.10
34644;DHT22;26931;43.498;-1.506;2022-08-19T12:44:29;24.30;73.40
34644;DHT22;26931;43.498;-1.506;2022-08-19T12:46:57;24.30;73.50
34644;DHT22;26931;43.498;-1.506;2022-08-19T12:49:23;24.30;73.60
34644;DHT22;26931;43.498;-1.506;2022-08-19T12:51:50;24.20;73.40
34644;DHT22;26931;43.498;-1.506;2022-08-19T12:54:17;24.50;73.80
34644;DHT22;26931;43.498;-1.506;2022-08-19T12:56:43;24.30;73.70
34644;DHT22;26931;43.498;-1.506;2022-08-19T12:59:10;24.20;73.90
34644;DHT22;26931;43.498;-1.506;2022-08-19T13:01:36;24.20;74.30
34644;DHT22;26931;43.498;-1.506;2022-08-19T13:04:02;24.10;74.40
34644;DHT22;26931;43.498;-1.506;2022-08-19T13:06:28;24.10;74.50
34644;DHT22;26931;43.498;-1.506;2022-08-19T13:08:54;24.10;74.50
34644;DHT22;26931;43.498;-1.506;2022-08-19T13:11:20;24.00;74.50
34644;DHT22;26931;43.498;-1.506;2022-08-19T13:13:46;24.10;74.60
34644;DHT22;26931;43.498;-1.506;2022-08-19T13:16:13;24.10;74.60
34644;DHT22;26931;43.498;-1.506;2022-08-19T13:18:40;24.10;74.70
34644;DHT22;26931;43.498;-1.506;2022-08-19T13:21:07;24.00;74.80
34644;DHT22;26931;43.498;-1.506;2022-08-19T13:23:33;24.10;74.90
34644;DHT22;26931;43.498;-1.506;2022-08-19T13:26:00;24.10;74.90
34644;DHT22;26931;43.498;-1.506;2022-08-19T13:28:27;24.10;74.90
34644;DHT22;26931;43.498;-1.506;2022-08-19T13:31:14;24.10;74.90
34644;DHT22;26931;43.498;-1.506;2022-08-19T13:33:58;24.00;74.90
34644;DHT22;26931;43.498;-1.506;2022-08-19T13:36:24;24.20;74.90
34644;DHT22;26931;43.498;-1.506;2022-08-19T13:38:50;24.10;74.90
34644;DHT22;26931;43.498;-1.506;2022-08-19T13:41:17;24.20;74.90
34644;DHT22;26931;43.498;-1.506;2022-08-19T13:43:44;24.00;75.00
34644;DHT22;26931;43.498;-1.506;2022-08-19T13:46:10;24.00;75.10
34644;DHT22;26931;43.498;-1.506;2022-08-19T13:48:39;24.10;75.20
34644;DHT22;26931;43.498;-1.506;2022-08-19T13:51:06;24.00;75.10
34644;DHT22;26931;43.498;-1.506;2022-08-19T13:53:37;24.20;75.30
34644;DHT22;26931;43.498;-1.506;2022-08-19T13:56:07;24.10;75.30
34644;DHT22;26931;43.498;-1.506;2022-08-19T13:58:34;24.30;75.40
34644;DHT22;26931;43.498;-1.506;2022-08-19T14:01:00;24.10;75.20
34644;DHT22;26931;43.498;-1.506;2022-08-19T14:03:26;24.00;75.10
34644;DHT22;26931;43.498;-1.506;2022-08-19T14:05:52;24.00;75.10
34644;DHT22;26931;43.498;-1.506;2022-08-19T14:08:18;24.10;75.00
34644;DHT22;26931;43.498;-1.506;2022-08-19T14:10:44;24.20;75.00
34644;DHT22;26931;43.498;-1.506;2022-08-19T14:13:12;24.20;74.90
34644;DHT22;26931;43.498;-1.506;2022-08-19T14:15:38;24.20;74.90
34644;DHT22;26931;43.498;-1.506;2022-08-19T14:18:03;24.20;74.90
34644;DHT22;26931;43.498;-1.506;2022-08-19T14:20:29;24.20;74.80
34644;DHT22;26931;43.498;-1.506;2022-08-19T14:22:55;24.20;74.80
34644;DHT22;26931;43.498;-1.506;2022-08-19T14:25:23;24.30;74.90
34644;DHT22;26931;43.498;-1.506;2022-08-19T14:27:49;24.20;74.80
34644;DHT22;26931;43.498;-1.506;2022-08-19T14:30:16;24.20;74.80
34644;DHT22;26931;43.498;-1.506;2022-08-19T14:32:42;24.20;75.00
34644;DHT22;26931;43.498;-1.506;2022-08-19T14:35:11;24.20;75.90
34644;DHT22;26931;43.498;-1.506;2022-08-19T14:37:38;24.20;75.10
34644;DHT22;26931;43.498;-1.506;2022-08-19T14:40:04;24.20;75.20
34644;DHT22;26931;43.498;-1.506;2022-08-19T14:42:30;24.20;75.30
34644;DHT22;26931;43.498;-1.506;2022-08-19T14:44:59;24.10;75.10
34644;DHT22;26931;43.498;-1.506;2022-08-19T14:47:25;24.30;75.30
34644;DHT22;26931;43.498;-1.506;2022-08-19T14:49:52;24.20;75.30
34644;DHT22;26931;43.498;-1.506;2022-08-19T14:52:18;24.00;75.40
34644;DHT22;26931;43.498;-1.506;2022-08-19T14:54:43;24.20;75.60
34644;DHT22;26931;43.498;-1.506;2022-08-19T14:57:11;24.40;75.60
34644;DHT22;26931;43.498;-1.506;2022-08-19T14:59:37;24.30;75.60
34644;DHT22;26931;43.498;-1.506;2022-08-19T15:02:04;24.20;75.60
34644;DHT22;26931;43.498;-1.506;2022-08-19T15:04:29;24.40;75.80
34644;DHT22;26931;43.498;-1.506;2022-08-19T15:06:55;24.20;75.80
34644;DHT22;26931;43.498;-1.506;2022-08-19T15:09:21;24.20;75.80
34644;DHT22;26931;43.498;-1.506;2022-08-19T15:11:46;24.20;75.70
34644;DHT22;26931;43.498;-1.506;2022-08-19T15:14:14;24.20;75.60
34644;DHT22;26931;43.498;-1.506;2022-08-19T15:16:40;24.20;75.60
34644;DHT22;26931;43.498;-1.506;2022-08-19T15:19:07;24.20;75.50